sensor_id;sensor_type;location;lat;lon;timestamp;P1;durP1;ratioP1;P2;durP2;ratioP2
20069;SDS011;10195;50.868;4.382;2024-01-06T00:01:42;8.77;;;4.00;;
20069;SDS011;10195;50.868;4.382;2024-01-06T00:04:08;10.63;;;3.47;;
20069;SDS011;10195;50.868;4.382;2024-01-06T00:06:34;9.07;;;4.00;;
20069;SDS011;10195;50.868;4.382;2024-01-06T00:08:59;11.87;;;3.17;;
20069;SDS011;10195;50.868;4.382;2024-01-06T00:11:25;9.47;;;4.67;;
20069;SDS011;10195;50.868;4.382;2024-01-06T00:13:51;8.50;;;4.67;;
20069;SDS011;10195;50.868;4.382;2024-01-06T00:16:17;6.67;;;3.37;;
20069;SDS011;10195;50.868;4.382;2024-01-06T00:18:44;7.33;;;4.17;;
20069;SDS011;10195;50.868;4.382;2024-01-06T00:21:10;10.83;;;3.80;;
20069;SDS011;10195;50.868;4.382;2024-01-06T00:23:36;9.13;;;3.73;;
20069;SDS011;10195;50.868;4.382;2024-01-06T00:26:01;10.00;;;3.77;;
20069;SDS011;10195;50.868;4.382;2024-01-06T00:28:27;5.87;;;3.33;;
20069;SDS011;10195;50.868;4.382;2024-01-06T00:30:53;7.97;;;3.80;;
20069;SDS011;10195;50.868;4.382;2024-01-06T00:33:18;7.67;;;3.70;;
20069;SDS011;10195;50.868;4.382;2024-01-06T00:35:45;5.97;;;3.80;;
20069;SDS011;10195;50.868;4.382;2024-01-06T00:38:11;9.37;;;4.70;;
20069;SDS011;10195;50.868;4.382;2024-01-06T00:40:37;9.20;;;4.50;;
20069;SDS011;10195;50.868;4.382;2024-01-06T00:43:02;6.77;;;3.73;;
20069;SDS011;10195;50.868;4.382;2024-01-06T00:45:28;7.50;;;3.40;;
20069;SDS011;10195;50.868;4.382;2024-01-06T00:47:55;7.80;;;3.80;;
20069;SDS011;10195;50.868;4.382;2024-01-06T00:50:21;7.57;;;3.60;;
20069;SDS011;10195;50.868;4.382;2024-01-06T00:52:47;9.23;;;3.57;;
20069;SDS011;10195;50.868;4.382;2024-01-06T00:55:12;5.00;;;3.30;;
20069;SDS011;10195;50.868;4.382;2024-01-06T00:57:38;7.53;;;3.17;;
20069;SDS011;10195;50.868;4.382;2024-01-06T01:00:04;5.57;;;2.80;;
20069;SDS011;10195;50.868;4.382;2024-01-06T01:02:31;8.70;;;3.67;;
20069;SDS011;10195;50.868;4.382;2024-01-06T01:04:57;7.07;;;3.53;;
20069;SDS011;10195;50.868;4.382;2024-01-06T01:07:23;7.93;;;3.73;;
20069;SDS011;10195;50.868;4.382;2024-01-06T01:09:49;6.03;;;2.97;;
20069;SDS011;10195;50.868;4.382;2024-01-06T01:12:15;7.87;;;3.80;;
20069;SDS011;10195;50.868;4.382;2024-01-06T01:14:40;7.93;;;3.67;;
20069;SDS011;10195;50.868;4.382;2024-01-06T01:17:06;5.77;;;3.60;;
20069;SDS011;10195;50.868;4.382;2024-01-06T01:19:32;5.37;;;3.13;;
20069;SDS011;10195;50.868;4.382;2024-01-06T01:21:57;8.40;;;3.20;;
20069;SDS011;10195;50.868;4.382;2024-01-06T01:24:26;10.50;;;3.20;;
20069;SDS011;10195;50.868;4.382;2024-01-06T01:26:51;5.90;;;2.90;;
20069;SDS011;10195;50.868;4.382;2024-01-06T01:29:17;3.80;;;2.80;;
20069;SDS011;10195;50.868;4.382;2024-01-06T01:31:45;10.60;;;3.23;;
20069;SDS011;10195;50.868;4.382;2024-01-06T01:34:11;7.37;;;3.00;;
20069;SDS011;10195;50.868;4.382;2024-01-06T01:36:37;7.47;;;3.17;;
20069;SDS011;10195;50.868;4.382;2024-01-06T01:39:03;8.70;;;3.20;;
20069;SDS011;10195;50.868;4.382;2024-01-06T01:41:28;6.83;;;2.60;;
20069;SDS011;10195;50.868;4.382;2024-01-06T01:43:54;5.10;;;2.97;;
20069;SDS011;10195;50.868;4.382;2024-01-06T01:46:26;5.80;;;2.90;;
20069;SDS011;10195;50.868;4.382;2024-01-06T01:48:54;7.17;;;3.13;;
20069;SDS011;10195;50.868;4.382;2024-01-06T01:51:21;7.27;;;3.00;;
20069;SDS011;10195;50.868;4.382;2024-01-06T01:53:53;7.63;;;3.23;;
20069;SDS011;10195;50.868;4.382;2024-01-06T01:56:19;3.50;;;2.17;;
20069;SDS011;10195;50.868;4.382;2024-01-06T01:58:46;7.07;;;2.63;;
20069;SDS011;10195;50.868;4.382;2024-01-06T02:01:12;4.30;;;2.27;;
20069;SDS011;10195;50.868;4.382;2024-01-06T02:03:40;3.63;;;2.50;;
20069;SDS011;10195;50.868;4.382;2024-01-06T02:06:09;8.13;;;2.50;;
20069;SDS011;10195;50.868;4.382;2024-01-06T02:08:37;5.90;;;2.50;;
20069;SDS011;10195;50.868;4.382;2024-01-06T02:11:03;3.63;;;2.13;;
20069;SDS011;10195;50.868;4.382;2024-01-06T02:13:35;3.40;;;1.67;;
20069;SDS011;10195;50.868;4.382;2024-01-06T02:16:03;3.10;;;2.37;;
20069;SDS011;10195;50.868;4.382;2024-01-06T02:18:29;4.60;;;2.17;;
20069;SDS011;10195;50.868;4.382;2024-01-06T02:20:59;2.93;;;2.07;;
20069;SDS011;10195;50.868;4.382;2024-01-06T02:23:26;4.30;;;2.67;;
20069;SDS011;10195;50.868;4.382;2024-01-06T02:25:53;3.80;;;2.47;;
20069;SDS011;10195;50.868;4.382;2024-01-06T02:28:19;2.93;;;2.13;;
20069;SDS011;10195;50.868;4.382;2024-01-06T02:30:44;5.33;;;2.20;;
20069;SDS011;10195;50.868;4.382;2024-01-06T02:33:10;3.57;;;2.43;;
20069;SDS011;10195;50.868;4.382;2024-01-06T02:35:36;4.97;;;2.03;;
20069;SDS011;10195;50.868;4.382;2024-01-06T02:38:02;2.50;;;1.90;;
20069;SDS011;10195;50.868;4.382;2024-01-06T02:40:28;2.27;;;2.03;;
20069;SDS011;10195;50.868;4.382;2024-01-06T02:42:53;3.50;;;1.90;;
20069;SDS011;10195;50.868;4.382;2024-01-06T02:45:19;3.50;;;2.30;;
20069;SDS011;10195;50.868;4.382;2024-01-06T02:47:45;3.20;;;2.13;;
20069;SDS011;10195;50.868;4.382;2024-01-06T02:50:11;2.37;;;2.17;;
20069;SDS011;10195;50.868;4.382;2024-01-06T02:52:36;5.00;;;2.47;;
20069;SDS011;10195;50.868;4.382;2024-01-06T02:55:02;2.57;;;2.13;;
20069;SDS011;10195;50.868;4.382;2024-01-06T02:57:29;2.53;;;2.33;;
20069;SDS011;10195;50.868;4.382;2024-01-06T02:59:55;3.00;;;2.50;;
20069;SDS011;10195;50.868;4.382;2024-01-06T03:02:21;3.87;;;2.40;;
20069;SDS011;10195;50.868;4.382;2024-01-06T03:04:47;3.50;;;2.80;;
20069;SDS011;10195;50.868;4.382;2024-01-06T03:07:12;3.70;;;3.10;;
20069;SDS011;10195;50.868;4.382;2024-01-06T03:09:38;7.77;;;3.40;;
20069;SDS011;10195;50.868;4.382;2024-01-06T03:12:04;4.20;;;2.80;;
20069;SDS011;10195;50.868;4.382;2024-01-06T03:14:32;6.63;;;3.53;;
20069;SDS011;10195;50.868;4.382;2024-01-06T03:17:00;4.07;;;3.10;;
20069;SDS011;10195;50.868;4.382;2024-01-06T03:19:27;3.63;;;3.10;;
20069;SDS011;10195;50.868;4.382;2024-01-06T03:21:53;6.53;;;3.00;;
20069;SDS011;10195;50.868;4.382;2024-01-06T03:24:20;4.67;;;2.90;;
20069;SDS011;10195;50.868;4.382;2024-01-06T03:26:46;5.20;;;3.07;;
20069;SDS011;10195;50.868;4.382;2024-01-06T03:29:12;8.00;;;3.43;;
20069;SDS011;10195;50.868;4.382;2024-01-06T03:31:41;5.30;;;3.63;;
20069;SDS011;10195;50.868;4.382;2024-01-06T03:34:07;3.97;;;3.57;;
20069;SDS011;10195;50.868;4.382;2024-01-06T03:36:33;7.57;;;4.20;;
20069;SDS011;10195;50.868;4.382;2024-01-06T03:38:59;9.17;;;4.43;;
20069;SDS011;10195;50.868;4.382;2024-01-06T03:41:25;8.07;;;4.23;;
20069;SDS011;10195;50.868;4.382;2024-01-06T03:43:51;6.23;;;4.30;;
20069;SDS011;10195;50.868;4.382;2024-01-06T03:46:16;13.27;;;5.43;;
20069;SDS011;10195;50.868;4.382;2024-01-06T03:48:42;7.20;;;4.57;;
20069;SDS011;10195;50.868;4.382;2024-01-06T03:51:08;8.73;;;5.67;;
20069;SDS011;10195;50.868;4.382;2024-01-06T03:53:35;8.50;;;5.30;;
20069;SDS011;10195;50.868;4.382;2024-01-06T03:56:01;13.80;;;6.00;;
20069;SDS011;10195;50.868;4.382;2024-01-06T03:58:28;10.43;;;5.80;;
20069;SDS011;10195;50.868;4.382;2024-01-06T04:00:54;7.83;;;6.47;;
20069;SDS011;10195;50.868;4.382;2024-01-06T04:03:19;12.40;;;6.13;;
20069;SDS011;10195;50.868;4.382;2024-01-06T04:05:46;10.47;;;7.03;;
20069;SDS011;10195;50.868;4.382;2024-01-06T04:08:12;10.83;;;6.90;;
20069;SDS011;10195;50.868;4.382;2024-01-06T04:10:40;12.13;;;7.60;;
20069;SDS011;10195;50.868;4.382;2024-01-06T04:13:06;11.03;;;6.80;;
20069;SDS011;10195;50.868;4.382;2024-01-06T04:15:33;14.03;;;8.10;;
20069;SDS011;10195;50.868;4.382;2024-01-06T04:18:01;11.73;;;7.17;;
20069;SDS011;10195;50.868;4.382;2024-01-06T04:20:28;10.90;;;7.83;;
20069;SDS011;10195;50.868;4.382;2024-01-06T04:22:54;17.97;;;7.90;;
20069;SDS011;10195;50.868;4.382;2024-01-06T04:25:20;12.33;;;8.30;;
20069;SDS011;10195;50.868;4.382;2024-01-06T04:27:46;13.30;;;8.20;;
20069;SDS011;10195;50.868;4.382;2024-01-06T04:30:13;16.47;;;8.17;;
20069;SDS011;10195;50.868;4.382;2024-01-06T04:32:39;13.87;;;7.87;;
20069;SDS011;10195;50.868;4.382;2024-01-06T04:35:05;18.33;;;8.57;;
20069;SDS011;10195;50.868;4.382;2024-01-06T04:37:31;13.17;;;8.40;;
20069;SDS011;10195;50.868;4.382;2024-01-06T04:39:57;13.03;;;8.10;;
20069;SDS011;10195;50.868;4.382;2024-01-06T04:42:22;15.30;;;8.43;;
20069;SDS011;10195;50.868;4.382;2024-01-06T04:44:49;18.50;;;7.73;;
20069;SDS011;10195;50.868;4.382;2024-01-06T04:47:15;11.60;;;7.53;;
20069;SDS011;10195;50.868;4.382;2024-01-06T04:49:40;11.53;;;7.27;;
20069;SDS011;10195;50.868;4.382;2024-01-06T04:52:06;13.83;;;8.10;;
20069;SDS011;10195;50.868;4.382;2024-01-06T04:54:32;14.03;;;7.93;;
20069;SDS011;10195;50.868;4.382;2024-01-06T04:56:58;13.53;;;8.57;;
20069;SDS011;10195;50.868;4.382;2024-01-06T04:59:24;15.93;;;9.87;;
20069;SDS011;10195;50.868;4.382;2024-01-06T05:01:50;12.23;;;7.97;;
20069;SDS011;10195;50.868;4.382;2024-01-06T05:04:17;12.87;;;7.43;;
20069;SDS011;10195;50.868;4.382;2024-01-06T05:06:43;14.57;;;7.67;;
20069;SDS011;10195;50.868;4.382;2024-01-06T05:09:09;11.57;;;7.93;;
20069;SDS011;10195;50.868;4.382;2024-01-06T05:11:34;15.97;;;8.27;;
20069;SDS011;10195;50.868;4.382;2024-01-06T05:14:00;15.33;;;8.27;;
20069;SDS011;10195;50.868;4.382;2024-01-06T05:16:26;13.27;;;7.63;;
20069;SDS011;10195;50.868;4.382;2024-01-06T05:18:52;21.60;;;8.47;;
20069;SDS011;10195;50.868;4.382;2024-01-06T05:21:18;17.53;;;7.87;;
20069;SDS011;10195;50.868;4.382;2024-01-06T05:23:44;18.20;;;8.00;;
20069;SDS011;10195;50.868;4.382;2024-01-06T05:26:10;15.30;;;8.57;;
20069;SDS011;10195;50.868;4.382;2024-01-06T05:28:37;16.10;;;7.67;;
20069;SDS011;10195;50.868;4.382;2024-01-06T05:31:02;12.90;;;6.63;;
20069;SDS011;10195;50.868;4.382;2024-01-06T05:33:28;14.17;;;7.30;;
20069;SDS011;10195;50.868;4.382;2024-01-06T05:35:54;10.90;;;7.30;;
20069;SDS011;10195;50.868;4.382;2024-01-06T05:38:19;20.13;;;7.60;;
20069;SDS011;10195;50.868;4.382;2024-01-06T05:40:45;12.90;;;7.43;;
20069;SDS011;10195;50.868;4.382;2024-01-06T05:43:11;10.37;;;6.73;;
20069;SDS011;10195;50.868;4.382;2024-01-06T05:45:36;10.13;;;6.73;;
20069;SDS011;10195;50.868;4.382;2024-01-06T05:48:03;21.10;;;7.73;;
20069;SDS011;10195;50.868;4.382;2024-01-06T05:50:29;12.37;;;7.47;;
20069;SDS011;10195;50.868;4.382;2024-01-06T05:52:55;15.37;;;6.73;;
20069;SDS011;10195;50.868;4.382;2024-01-06T05:55:21;11.67;;;7.20;;
20069;SDS011;10195;50.868;4.382;2024-01-06T05:57:48;13.27;;;6.97;;
20069;SDS011;10195;50.868;4.382;2024-01-06T06:00:14;11.00;;;5.67;;
20069;SDS011;10195;50.868;4.382;2024-01-06T06:02:40;9.90;;;6.87;;
20069;SDS011;10195;50.868;4.382;2024-01-06T06:05:05;12.90;;;7.80;;
20069;SDS011;10195;50.868;4.382;2024-01-06T06:07:31;14.07;;;7.10;;
20069;SDS011;10195;50.868;4.382;2024-01-06T06:09:57;13.87;;;7.57;;
20069;SDS011;10195;50.868;4.382;2024-01-06T06:12:23;17.10;;;7.30;;
20069;SDS011;10195;50.868;4.382;2024-01-06T06:14:48;9.83;;;7.30;;
20069;SDS011;10195;50.868;4.382;2024-01-06T06:17:14;14.77;;;7.83;;
20069;SDS011;10195;50.868;4.382;2024-01-06T06:19:40;13.50;;;7.30;;
20069;SDS011;10195;50.868;4.382;2024-01-06T06:22:05;16.57;;;6.77;;
20069;SDS011;10195;50.868;4.382;2024-01-06T06:24:31;11.93;;;6.40;;
20069;SDS011;10195;50.868;4.382;2024-01-06T06:26:57;10.73;;;5.80;;
20069;SDS011;10195;50.868;4.382;2024-01-06T06:29:22;11.30;;;5.93;;
20069;SDS011;10195;50.868;4.382;2024-01-06T06:31:48;12.63;;;6.17;;
20069;SDS011;10195;50.868;4.382;2024-01-06T06:34:14;9.00;;;5.70;;
20069;SDS011;10195;50.868;4.382;2024-01-06T06:36:39;9.63;;;4.70;;
20069;SDS011;10195;50.868;4.382;2024-01-06T06:39:05;6.47;;;4.37;;
20069;SDS011;10195;50.868;4.382;2024-01-06T06:41:30;8.20;;;5.70;;
20069;SDS011;10195;50.868;4.382;2024-01-06T06:43:59;10.20;;;5.47;;
20069;SDS011;10195;50.868;4.382;2024-01-06T06:46:25;7.37;;;5.37;;
20069;SDS011;10195;50.868;4.382;2024-01-06T06:48:51;8.43;;;5.57;;
20069;SDS011;10195;50.868;4.382;2024-01-06T06:51:16;11.23;;;5.53;;
20069;SDS011;10195;50.868;4.382;2024-01-06T06:53:42;12.03;;;6.60;;
20069;SDS011;10195;50.868;4.382;2024-01-06T06:56:08;12.87;;;6.17;;
20069;SDS011;10195;50.868;4.382;2024-01-06T06:58:33;11.43;;;6.90;;
20069;SDS011;10195;50.868;4.382;2024-01-06T07:00:59;10.37;;;6.93;;
20069;SDS011;10195;50.868;4.382;2024-01-06T07:03:27;13.07;;;6.87;;
20069;SDS011;10195;50.868;4.382;2024-01-06T07:05:53;11.30;;;6.67;;
20069;SDS011;10195;50.868;4.382;2024-01-06T07:08:18;9.77;;;6.60;;
20069;SDS011;10195;50.868;4.382;2024-01-06T07:10:44;12.00;;;7.70;;
20069;SDS011;10195;50.868;4.382;2024-01-06T07:13:10;16.90;;;7.20;;
20069;SDS011;10195;50.868;4.382;2024-01-06T07:15:35;15.17;;;7.77;;
20069;SDS011;10195;50.868;4.382;2024-01-06T07:18:01;12.20;;;7.90;;
20069;SDS011;10195;50.868;4.382;2024-01-06T07:20:27;10.87;;;6.13;;
20069;SDS011;10195;50.868;4.382;2024-01-06T07:22:55;12.27;;;7.40;;
20069;SDS011;10195;50.868;4.382;2024-01-06T07:25:21;11.77;;;7.03;;
20069;SDS011;10195;50.868;4.382;2024-01-06T07:27:47;15.37;;;8.77;;
20069;SDS011;10195;50.868;4.382;2024-01-06T07:30:13;13.43;;;8.37;;
20069;SDS011;10195;50.868;4.382;2024-01-06T07:32:39;15.40;;;9.47;;
20069;SDS011;10195;50.868;4.382;2024-01-06T07:35:05;15.57;;;9.37;;
20069;SDS011;10195;50.868;4.382;2024-01-06T07:37:30;14.40;;;8.70;;
20069;SDS011;10195;50.868;4.382;2024-01-06T07:39:59;12.83;;;8.57;;
20069;SDS011;10195;50.868;4.382;2024-01-06T07:42:25;14.70;;;9.20;;
20069;SDS011;10195;50.868;4.382;2024-01-06T07:44:51;13.43;;;8.20;;
20069;SDS011;10195;50.868;4.382;2024-01-06T07:47:16;13.87;;;9.30;;
20069;SDS011;10195;50.868;4.382;2024-01-06T07:49:42;13.70;;;8.80;;
20069;SDS011;10195;50.868;4.382;2024-01-06T07:52:08;15.63;;;9.07;;
20069;SDS011;10195;50.868;4.382;2024-01-06T07:54:33;14.27;;;8.70;;
20069;SDS011;10195;50.868;4.382;2024-01-06T07:56:59;21.70;;;9.70;;
20069;SDS011;10195;50.868;4.382;2024-01-06T07:59:25;15.13;;;9.47;;
20069;SDS011;10195;50.868;4.382;2024-01-06T08:01:50;15.13;;;9.60;;
20069;SDS011;10195;50.868;4.382;2024-01-06T08:04:16;14.10;;;8.67;;
20069;SDS011;10195;50.868;4.382;2024-01-06T08:06:42;12.50;;;9.47;;
20069;SDS011;10195;50.868;4.382;2024-01-06T08:09:07;15.93;;;8.90;;
20069;SDS011;10195;50.868;4.382;2024-01-06T08:11:33;19.43;;;9.53;;
20069;SDS011;10195;50.868;4.382;2024-01-06T08:13:59;12.33;;;7.43;;
20069;SDS011;10195;50.868;4.382;2024-01-06T08:16:25;13.10;;;8.83;;
20069;SDS011;10195;50.868;4.382;2024-01-06T08:18:50;16.10;;;9.40;;
20069;SDS011;10195;50.868;4.382;2024-01-06T08:21:16;17.43;;;9.67;;
20069;SDS011;10195;50.868;4.382;2024-01-06T08:23:42;7.03;;;4.70;;
20069;SDS011;10195;50.868;4.382;2024-01-06T08:26:09;13.33;;;8.70;;
20069;SDS011;10195;50.868;4.382;2024-01-06T08:28:35;14.90;;;8.10;;
20069;SDS011;10195;50.868;4.382;2024-01-06T08:31:01;10.83;;;8.40;;
20069;SDS011;10195;50.868;4.382;2024-01-06T08:33:29;19.53;;;9.20;;
20069;SDS011;10195;50.868;4.382;2024-01-06T08:35:54;14.60;;;8.57;;
20069;SDS011;10195;50.868;4.382;2024-01-06T08:38:20;10.57;;;6.60;;
20069;SDS011;10195;50.868;4.382;2024-01-06T08:40:47;9.90;;;6.63;;
20069;SDS011;10195;50.868;4.382;2024-01-06T08:43:15;12.03;;;7.50;;
20069;SDS011;10195;50.868;4.382;2024-01-06T08:45:41;11.80;;;7.13;;
20069;SDS011;10195;50.868;4.382;2024-01-06T08:48:06;10.67;;;7.03;;
20069;SDS011;10195;50.868;4.382;2024-01-06T08:50:32;12.23;;;6.67;;
20069;SDS011;10195;50.868;4.382;2024-01-06T08:52:58;9.57;;;6.13;;
20069;SDS011;10195;50.868;4.382;2024-01-06T08:55:23;8.17;;;5.40;;
20069;SDS011;10195;50.868;4.382;2024-01-06T08:57:49;11.47;;;6.70;;
20069;SDS011;10195;50.868;4.382;2024-01-06T09:00:15;10.87;;;5.07;;
20069;SDS011;10195;50.868;4.382;2024-01-06T09:02:42;9.43;;;5.97;;
20069;SDS011;10195;50.868;4.382;2024-01-06T09:05:08;9.60;;;6.53;;
20069;SDS011;10195;50.868;4.382;2024-01-06T09:07:33;12.60;;;6.20;;
20069;SDS011;10195;50.868;4.382;2024-01-06T09:09:59;10.00;;;7.00;;
20069;SDS011;10195;50.868;4.382;2024-01-06T09:12:25;12.50;;;6.80;;
20069;SDS011;10195;50.868;4.382;2024-01-06T09:14:51;10.07;;;6.53;;
20069;SDS011;10195;50.868;4.382;2024-01-06T09:17:17;12.40;;;7.17;;
20069;SDS011;10195;50.868;4.382;2024-01-06T09:19:42;11.80;;;7.07;;
20069;SDS011;10195;50.868;4.382;2024-01-06T09:22:08;13.27;;;7.17;;
20069;SDS011;10195;50.868;4.382;2024-01-06T09:24:34;15.30;;;6.97;;
20069;SDS011;10195;50.868;4.382;2024-01-06T09:26:59;11.23;;;7.27;;
20069;SDS011;10195;50.868;4.382;2024-01-06T09:29:25;11.53;;;7.07;;
20069;SDS011;10195;50.868;4.382;2024-01-06T09:31:51;10.53;;;7.93;;
20069;SDS011;10195;50.868;4.382;2024-01-06T09:34:17;13.80;;;7.53;;
20069;SDS011;10195;50.868;4.382;2024-01-06T09:36:42;10.03;;;7.10;;
20069;SDS011;10195;50.868;4.382;2024-01-06T09:39:08;10.87;;;7.43;;
20069;SDS011;10195;50.868;4.382;2024-01-06T09:41:34;14.73;;;7.47;;
20069;SDS011;10195;50.868;4.382;2024-01-06T09:43:59;12.97;;;7.03;;
20069;SDS011;10195;50.868;4.382;2024-01-06T09:46:26;12.30;;;6.13;;
20069;SDS011;10195;50.868;4.382;2024-01-06T09:48:54;14.33;;;7.07;;
20069;SDS011;10195;50.868;4.382;2024-01-06T09:51:21;10.63;;;6.30;;
20069;SDS011;10195;50.868;4.382;2024-01-06T09:53:58;12.47;;;7.10;;
20069;SDS011;10195;50.868;4.382;2024-01-06T09:56:28;12.43;;;7.13;;
20069;SDS011;10195;50.868;4.382;2024-01-06T09:58:55;12.20;;;6.37;;
20069;SDS011;10195;50.868;4.382;2024-01-06T10:01:21;9.10;;;6.73;;
20069;SDS011;10195;50.868;4.382;2024-01-06T10:03:48;10.73;;;7.00;;
20069;SDS011;10195;50.868;4.382;2024-01-06T10:06:14;6.77;;;5.00;;
20069;SDS011;10195;50.868;4.382;2024-01-06T10:08:58;10.97;;;6.33;;
20069;SDS011;10195;50.868;4.382;2024-01-06T10:11:24;10.67;;;6.20;;
20069;SDS011;10195;50.868;4.382;2024-01-06T10:13:51;10.87;;;6.57;;
20069;SDS011;10195;50.868;4.382;2024-01-06T10:16:19;11.20;;;5.67;;
20069;SDS011;10195;50.868;4.382;2024-01-06T10:18:45;9.53;;;6.57;;
20069;SDS011;10195;50.868;4.382;2024-01-06T10:21:11;11.80;;;6.47;;
20069;SDS011;10195;50.868;4.382;2024-01-06T10:23:38;15.73;;;6.87;;
20069;SDS011;10195;50.868;4.382;2024-01-06T10:26:04;9.63;;;6.40;;
20069;SDS011;10195;50.868;4.382;2024-01-06T10:28:30;10.13;;;6.33;;
20069;SDS011;10195;50.868;4.382;2024-01-06T10:30:56;10.67;;;4.87;;
20069;SDS011;10195;50.868;4.382;2024-01-06T10:33:23;8.97;;;5.93;;
20069;SDS011;10195;50.868;4.382;2024-01-06T10:35:51;9.30;;;5.93;;
20069;SDS011;10195;50.868;4.382;2024-01-06T10:38:19;10.30;;;5.83;;
20069;SDS011;10195;50.868;4.382;2024-01-06T10:40:55;8.53;;;5.87;;
20069;SDS011;10195;50.868;4.382;2024-01-06T10:43:22;8.43;;;5.10;;
20069;SDS011;10195;50.868;4.382;2024-01-06T10:45:54;9.93;;;5.60;;
20069;SDS011;10195;50.868;4.382;2024-01-06T10:48:24;7.10;;;5.57;;
20069;SDS011;10195;50.868;4.382;2024-01-06T10:50:51;10.97;;;5.93;;
20069;SDS011;10195;50.868;4.382;2024-01-06T10:53:18;10.10;;;6.50;;
20069;SDS011;10195;50.868;4.382;2024-01-06T10:55:48;13.03;;;6.00;;
20069;SDS011;10195;50.868;4.382;2024-01-06T10:58:16;10.63;;;5.40;;
20069;SDS011;10195;50.868;4.382;2024-01-06T11:00:42;9.13;;;5.50;;
20069;SDS011;10195;50.868;4.382;2024-01-06T11:03:08;8.27;;;5.47;;
20069;SDS011;10195;50.868;4.382;2024-01-06T11:05:35;8.00;;;5.83;;
20069;SDS011;10195;50.868;4.382;2024-01-06T11:08:02;12.13;;;5.80;;
20069;SDS011;10195;50.868;4.382;2024-01-06T11:10:29;11.70;;;5.67;;
20069;SDS011;10195;50.868;4.382;2024-01-06T11:13:08;14.30;;;5.23;;
20069;SDS011;10195;50.868;4.382;2024-01-06T11:15:49;7.00;;;5.33;;
20069;SDS011;10195;50.868;4.382;2024-01-06T11:18:35;9.50;;;4.87;;
20069;SDS011;10195;50.868;4.382;2024-01-06T11:23:50;6.70;;;4.07;;
20069;SDS011;10195;50.868;4.382;2024-01-06T11:26:53;10.30;;;5.30;;
20069;SDS011;10195;50.868;4.382;2024-01-06T11:29:21;8.17;;;4.97;;
20069;SDS011;10195;50.868;4.382;2024-01-06T11:34:42;11.33;;;6.00;;
20069;SDS011;10195;50.868;4.382;2024-01-06T11:37:07;10.30;;;5.80;;
20069;SDS011;10195;50.868;4.382;2024-01-06T11:39:37;7.83;;;5.57;;
20069;SDS011;10195;50.868;4.382;2024-01-06T11:42:05;8.27;;;5.20;;
20069;SDS011;10195;50.868;4.382;2024-01-06T11:44:34;10.07;;;5.43;;
20069;SDS011;10195;50.868;4.382;2024-01-06T11:47:02;8.87;;;6.07;;
20069;SDS011;10195;50.868;4.382;2024-01-06T11:49:30;7.10;;;5.90;;
20069;SDS011;10195;50.868;4.382;2024-01-06T11:51:56;5.70;;;3.77;;
20069;SDS011;10195;50.868;4.382;2024-01-06T11:54:22;8.23;;;6.23;;
20069;SDS011;10195;50.868;4.382;2024-01-06T11:56:49;8.57;;;6.40;;
20069;SDS011;10195;50.868;4.382;2024-01-06T11:59:14;8.33;;;6.47;;
20069;SDS011;10195;50.868;4.382;2024-01-06T12:01:40;9.70;;;6.43;;
20069;SDS011;10195;50.868;4.382;2024-01-06T12:04:07;9.33;;;6.20;;
20069;SDS011;10195;50.868;4.382;2024-01-06T12:06:33;10.70;;;5.73;;
20069;SDS011;10195;50.868;4.382;2024-01-06T12:09:10;10.40;;;5.57;;
20069;SDS011;10195;50.868;4.382;2024-01-06T12:11:40;8.93;;;6.70;;
20069;SDS011;10195;50.868;4.382;2024-01-06T12:14:06;9.73;;;6.20;;
20069;SDS011;10195;50.868;4.382;2024-01-06T12:16:31;8.67;;;6.17;;
20069;SDS011;10195;50.868;4.382;2024-01-06T12:18:58;8.37;;;6.10;;
20069;SDS011;10195;50.868;4.382;2024-01-06T12:21:26;8.10;;;5.83;;
20069;SDS011;10195;50.868;4.382;2024-01-06T12:23:52;8.17;;;5.57;;
20069;SDS011;10195;50.868;4.382;2024-01-06T12:26:18;7.30;;;5.77;;
20069;SDS011;10195;50.868;4.382;2024-01-06T12:28:45;8.17;;;4.93;;
20069;SDS011;10195;50.868;4.382;2024-01-06T12:31:14;8.23;;;4.00;;
20069;SDS011;10195;50.868;4.382;2024-01-06T12:33:44;6.97;;;5.20;;
20069;SDS011;10195;50.868;4.382;2024-01-06T12:36:11;8.90;;;6.53;;
20069;SDS011;10195;50.868;4.382;2024-01-06T12:38:37;7.93;;;5.47;;
20069;SDS011;10195;50.868;4.382;2024-01-06T12:41:06;9.17;;;5.70;;
20069;SDS011;10195;50.868;4.382;2024-01-06T12:43:31;8.47;;;5.27;;
20069;SDS011;10195;50.868;4.382;2024-01-06T12:45:57;7.80;;;4.73;;
20069;SDS011;10195;50.868;4.382;2024-01-06T12:48:23;8.50;;;4.77;;
20069;SDS011;10195;50.868;4.382;2024-01-06T12:50:49;6.57;;;4.73;;
20069;SDS011;10195;50.868;4.382;2024-01-06T12:53:15;12.57;;;5.17;;
20069;SDS011;10195;50.868;4.382;2024-01-06T12:55:42;7.13;;;3.63;;
20069;SDS011;10195;50.868;4.382;2024-01-06T12:58:08;5.30;;;3.87;;
20069;SDS011;10195;50.868;4.382;2024-01-06T13:00:34;6.33;;;3.97;;
20069;SDS011;10195;50.868;4.382;2024-01-06T13:03:00;6.93;;;4.00;;
20069;SDS011;10195;50.868;4.382;2024-01-06T13:05:28;8.93;;;4.70;;
20069;SDS011;10195;50.868;4.382;2024-01-06T13:07:54;7.27;;;4.40;;
20069;SDS011;10195;50.868;4.382;2024-01-06T13:10:20;4.03;;;2.80;;
20069;SDS011;10195;50.868;4.382;2024-01-06T13:12:45;9.87;;;5.00;;
20069;SDS011;10195;50.868;4.382;2024-01-06T13:15:11;7.87;;;5.13;;
20069;SDS011;10195;50.868;4.382;2024-01-06T13:17:37;8.80;;;4.90;;
20069;SDS011;10195;50.868;4.382;2024-01-06T13:20:03;7.67;;;4.03;;
20069;SDS011;10195;50.868;4.382;2024-01-06T13:22:31;7.47;;;3.97;;
20069;SDS011;10195;50.868;4.382;2024-01-06T13:24:57;6.37;;;4.67;;
20069;SDS011;10195;50.868;4.382;2024-01-06T13:27:24;5.80;;;4.03;;
20069;SDS011;10195;50.868;4.382;2024-01-06T13:29:52;4.17;;;3.43;;
20069;SDS011;10195;50.868;4.382;2024-01-06T13:32:18;5.13;;;4.10;;
20069;SDS011;10195;50.868;4.382;2024-01-06T13:34:45;9.10;;;4.87;;
20069;SDS011;10195;50.868;4.382;2024-01-06T13:37:11;9.23;;;5.17;;
20069;SDS011;10195;50.868;4.382;2024-01-06T13:39:37;8.50;;;5.00;;
20069;SDS011;10195;50.868;4.382;2024-01-06T13:42:02;11.13;;;4.67;;
20069;SDS011;10195;50.868;4.382;2024-01-06T13:44:29;9.87;;;4.53;;
20069;SDS011;10195;50.868;4.382;2024-01-06T13:46:55;6.33;;;4.70;;
20069;SDS011;10195;50.868;4.382;2024-01-06T13:49:21;8.83;;;4.27;;
20069;SDS011;10195;50.868;4.382;2024-01-06T13:51:48;5.73;;;4.50;;
20069;SDS011;10195;50.868;4.382;2024-01-06T13:54:17;7.63;;;4.73;;
20069;SDS011;10195;50.868;4.382;2024-01-06T13:56:43;5.63;;;3.93;;
20069;SDS011;10195;50.868;4.382;2024-01-06T13:59:09;5.80;;;4.30;;
20069;SDS011;10195;50.868;4.382;2024-01-06T14:01:34;8.57;;;4.10;;
20069;SDS011;10195;50.868;4.382;2024-01-06T14:04:00;6.43;;;3.60;;
20069;SDS011;10195;50.868;4.382;2024-01-06T14:06:26;8.90;;;5.27;;
20069;SDS011;10195;50.868;4.382;2024-01-06T14:08:56;8.87;;;4.83;;
20069;SDS011;10195;50.868;4.382;2024-01-06T14:11:23;8.07;;;5.23;;
20069;SDS011;10195;50.868;4.382;2024-01-06T14:13:53;4.60;;;3.90;;
20069;SDS011;10195;50.868;4.382;2024-01-06T14:16:19;10.33;;;5.27;;
20069;SDS011;10195;50.868;4.382;2024-01-06T14:18:48;8.20;;;5.13;;
20069;SDS011;10195;50.868;4.382;2024-01-06T14:21:13;8.40;;;4.73;;
20069;SDS011;10195;50.868;4.382;2024-01-06T14:23:41;6.30;;;4.60;;
20069;SDS011;10195;50.868;4.382;2024-01-06T14:26:07;10.60;;;4.40;;
20069;SDS011;10195;50.868;4.382;2024-01-06T14:28:32;6.80;;;4.13;;
20069;SDS011;10195;50.868;4.382;2024-01-06T14:30:58;9.50;;;5.00;;
20069;SDS011;10195;50.868;4.382;2024-01-06T14:33:24;8.77;;;4.50;;
20069;SDS011;10195;50.868;4.382;2024-01-06T14:35:49;6.53;;;4.23;;
20069;SDS011;10195;50.868;4.382;2024-01-06T14:38:15;7.20;;;4.40;;
20069;SDS011;10195;50.868;4.382;2024-01-06T14:40:41;10.03;;;4.97;;
20069;SDS011;10195;50.868;4.382;2024-01-06T14:43:07;6.33;;;4.53;;